createdAt,value
2017-11-14T00:00:50.377Z,12.43
2017-11-14T00:03:18.625Z,13.88
2017-11-14T00:05:47.642Z,15.80
2017-11-14T00:08:15.900Z,16.00
2017-11-14T00:10:44.174Z,16.75
2017-11-14T00:13:13.196Z,17.83
2017-11-14T00:15:41.470Z,15.95
2017-11-14T00:18:09.711Z,15.10
2017-11-14T00:20:38.732Z,16.77
2017-11-14T00:23:06.991Z,16.08
2017-11-14T00:25:36.015Z,18.58
2017-11-14T00:28:04.288Z,17.87
2017-11-14T00:30:32.547Z,19.15
2017-11-14T00:33:01.571Z,18.90
2017-11-14T00:35:29.823Z,19.25
2017-11-14T00:37:58.080Z,20.25
2017-11-14T00:40:27.099Z,20.33
2017-11-14T00:42:55.363Z,19.65
2017-11-14T00:45:23.619Z,17.85
2017-11-14T00:47:52.667Z,19.65
2017-11-14T00:50:20.925Z,17.98
2017-11-14T00:52:49.182Z,17.12
2017-11-14T00:55:17.454Z,20.75
2017-11-14T00:57:45.712Z,19.30
2017-11-14T01:00:14.735Z,18.02
2017-11-14T01:02:42.982Z,17.62
2017-11-14T01:05:11.240Z,18.77
2017-11-14T01:07:39.492Z,20.30
2017-11-14T01:10:07.750Z,18.62
2017-11-14T01:12:36.001Z,16.90
2017-11-14T01:15:04.255Z,16.87
2017-11-14T01:17:33.279Z,17.00
2017-11-14T01:20:01.536Z,19.30
2017-11-14T01:22:30.549Z,16.58
2017-11-14T01:24:58.804Z,15.48
2017-11-14T01:27:27.821Z,17.40
2017-11-14T01:29:56.079Z,16.02
2017-11-14T01:32:24.337Z,16.00
2017-11-14T01:34:52.587Z,17.00
2017-11-14T01:37:20.835Z,17.75
2017-11-14T01:39:49.087Z,18.65
2017-11-14T01:42:17.325Z,15.30
2017-11-14T01:44:45.578Z,15.90
2017-11-14T01:47:13.829Z,21.23
2017-11-14T01:49:42.074Z,22.27
2017-11-14T01:52:11.083Z,19.33
2017-11-14T01:54:39.340Z,20.02
2017-11-14T01:57:08.350Z,21.27
2017-11-14T01:59:36.595Z,19.48
2017-11-14T02:02:05.604Z,20.00
2017-11-14T02:04:33.859Z,20.20
2017-11-14T02:07:02.106Z,19.65
2017-11-14T02:09:30.350Z,17.12
2017-11-14T02:11:58.610Z,17.62
2017-11-14T02:14:26.860Z,16.35
2017-11-14T02:16:55.118Z,16.98
2017-11-14T02:19:23.365Z,18.05
2017-11-14T02:21:51.603Z,16.00
2017-11-14T02:24:20.614Z,15.93
2017-11-14T02:26:54.214Z,16.23
2017-11-14T02:29:22.564Z,15.88
2017-11-14T02:31:51.586Z,14.90
2017-11-14T02:34:19.833Z,13.45
2017-11-14T02:36:48.851Z,13.40
2017-11-14T02:39:17.094Z,13.05
2017-11-14T02:41:45.341Z,13.55
2017-11-14T02:44:13.592Z,13.25
2017-11-14T02:46:41.835Z,12.70
2017-11-14T02:49:10.854Z,13.15
2017-11-14T02:51:39.094Z,11.85
2017-11-14T02:54:07.345Z,13.70
2017-11-14T02:56:35.590Z,12.82
2017-11-14T02:59:03.850Z,13.18
2017-11-14T03:01:32.086Z,10.45
2017-11-14T03:04:01.112Z,10.70
2017-11-14T03:06:29.360Z,10.82
2017-11-14T03:08:58.374Z,9.23
2017-11-14T03:11:26.631Z,8.95
2017-11-14T03:13:55.644Z,10.98
2017-11-14T03:16:23.891Z,11.45
2017-11-14T03:18:52.131Z,9.40
2017-11-14T03:21:21.153Z,10.07
2017-11-14T03:23:49.391Z,10.45
2017-11-14T03:26:17.640Z,9.82
2017-11-14T03:28:45.897Z,10.50
2017-11-14T03:31:14.936Z,10.30
2017-11-14T03:33:43.185Z,10.90
2017-11-14T03:36:11.449Z,10.82
2017-11-14T03:38:40.466Z,9.10
2017-11-14T03:41:08.742Z,10.25
2017-11-14T03:43:36.999Z,11.48
2017-11-14T03:46:05.250Z,11.02
2017-11-14T03:48:33.511Z,12.25
2017-11-14T03:51:01.759Z,11.07
2017-11-14T03:53:30.004Z,11.02
2017-11-14T03:55:58.259Z,11.80
2017-11-14T03:58:27.266Z,10.67
2017-11-14T04:00:55.531Z,11.25
2017-11-14T04:03:24.548Z,10.10
2017-11-14T04:05:52.800Z,9.52
2017-11-14T04:08:21.811Z,10.10
2017-11-14T04:10:50.054Z,9.93
2017-11-14T04:13:18.310Z,11.07
2017-11-14T04:15:46.563Z,9.45
2017-11-14T04:18:14.806Z,10.68
2017-11-14T04:20:43.057Z,11.77
2017-11-14T04:23:12.078Z,11.85
2017-11-14T04:25:41.088Z,11.55
2017-11-14T04:28:09.342Z,11.82
2017-11-14T04:30:37.591Z,11.80
2017-11-14T04:33:05.839Z,13.62
2017-11-14T04:35:34.095Z,14.65
2017-11-14T04:38:02.342Z,15.05
2017-11-14T04:40:31.357Z,15.57
2017-11-14T04:42:59.605Z,14.55
2017-11-14T04:45:28.617Z,16.62
2017-11-14T04:47:56.867Z,16.95
2017-11-14T04:50:25.883Z,15.55
2017-11-14T04:52:54.127Z,15.98
2017-11-14T04:55:22.373Z,16.98
2017-11-14T04:57:50.617Z,14.87
2017-11-14T05:00:18.869Z,17.00
2017-11-14T05:02:47.884Z,16.33
2017-11-14T05:05:16.139Z,15.25
2017-11-14T05:07:45.163Z,15.43
2017-11-14T05:10:13.407Z,15.95
2017-11-14T05:12:42.418Z,14.82
2017-11-14T05:15:10.673Z,15.48
2017-11-14T05:17:39.683Z,14.80
2017-11-14T05:20:07.930Z,14.45
2017-11-14T05:22:36.942Z,14.13
2017-11-14T05:25:05.202Z,14.30
2017-11-14T05:27:34.223Z,15.43
2017-11-14T05:30:02.484Z,16.10
2017-11-14T05:32:31.490Z,16.65
2017-11-14T05:34:59.743Z,19.50
2017-11-14T05:37:28.780Z,16.92
2017-11-14T05:39:57.059Z,15.50
2017-11-14T05:42:25.311Z,15.55
2017-11-14T05:44:53.556Z,15.55
2017-11-14T05:47:21.827Z,15.80
2017-11-14T05:49:50.071Z,17.40
2017-11-14T05:52:18.326Z,20.20
2017-11-14T05:54:46.580Z,23.58
2017-11-14T05:57:14.838Z,25.35
2017-11-14T05:59:43.870Z,23.25
2017-11-14T06:02:12.122Z,24.83
2017-11-14T06:04:41.133Z,23.17
2017-11-14T06:07:09.412Z,22.60
2017-11-14T06:09:37.666Z,20.98
2017-11-14T06:12:06.685Z,24.75
2017-11-14T06:14:34.948Z,22.10
2017-11-14T06:17:03.213Z,25.67
2017-11-14T06:19:32.235Z,24.08
2017-11-14T06:22:00.488Z,24.52
2017-11-14T06:24:28.804Z,26.17
2017-11-14T06:26:57.045Z,25.15
2017-11-14T06:29:25.306Z,28.50
2017-11-14T06:31:54.324Z,26.92
2017-11-14T06:34:22.584Z,24.42
2017-11-14T06:36:50.829Z,26.58
2017-11-14T06:39:19.859Z,26.60
2017-11-14T06:41:48.116Z,26.70
2017-11-14T06:44:17.135Z,26.80
2017-11-14T06:46:45.388Z,22.00
2017-11-14T06:49:13.650Z,23.42
2017-11-14T06:51:41.903Z,22.65
2017-11-14T06:54:10.155Z,27.37
2017-11-14T06:56:38.411Z,23.73
2017-11-14T06:59:06.678Z,22.60
2017-11-14T07:01:34.935Z,22.33
2017-11-14T07:04:03.950Z,22.75
2017-11-14T07:06:32.215Z,21.05
2017-11-14T07:09:00.470Z,22.10
2017-11-14T07:11:29.480Z,23.90
2017-11-14T07:13:57.742Z,20.37
2017-11-14T07:16:25.983Z,21.10
2017-11-14T07:18:54.234Z,30.10
2017-11-14T07:21:22.481Z,21.58
2017-11-14T07:23:50.751Z,17.45
2017-11-14T07:26:19.007Z,18.58
2017-11-14T07:28:47.256Z,19.40
2017-11-14T07:31:15.515Z,17.30
2017-11-14T07:33:43.760Z,16.27
2017-11-14T07:36:12.014Z,16.40
2017-11-14T07:38:41.031Z,16.23
2017-11-14T07:41:09.315Z,16.93
2017-11-14T07:43:37.550Z,17.40
2017-11-14T07:46:06.572Z,16.60
2017-11-14T07:48:34.821Z,16.92
2017-11-14T07:51:03.084Z,15.23
2017-11-14T07:53:31.332Z,13.40
2017-11-14T07:55:59.594Z,16.30
2017-11-14T07:58:27.843Z,15.55
2017-11-14T08:00:56.850Z,14.03
2017-11-14T08:03:25.103Z,14.45
2017-11-14T08:05:54.118Z,14.47
2017-11-14T08:08:22.363Z,16.27
2017-11-14T08:10:50.614Z,14.45
2017-11-14T08:13:18.880Z,14.53
2017-11-14T08:15:47.126Z,16.13
2017-11-14T08:18:15.374Z,13.90
2017-11-14T08:20:44.381Z,13.20
2017-11-14T08:23:12.631Z,14.60
2017-11-14T08:25:40.876Z,13.90
2017-11-14T08:28:09.119Z,13.27
2017-11-14T08:30:37.370Z,13.90
2017-11-14T08:33:07.108Z,12.93
2017-11-14T08:35:35.366Z,14.37
2017-11-14T08:38:03.620Z,13.33
2017-11-14T08:40:32.641Z,13.75
2017-11-14T08:43:00.874Z,11.03
2017-11-14T08:45:29.128Z,12.63
2017-11-14T08:47:57.364Z,11.53
2017-11-14T08:50:25.616Z,11.63
2017-11-14T08:52:54.634Z,11.50
2017-11-14T08:55:22.880Z,12.80
2017-11-14T08:57:51.117Z,13.70
2017-11-14T09:00:19.372Z,12.70
2017-11-14T09:02:47.609Z,11.67
2017-11-14T09:05:15.867Z,11.33
2017-11-14T09:07:44.112Z,13.10
2017-11-14T09:10:12.361Z,13.00
2017-11-14T09:12:40.626Z,13.87
2017-11-14T09:15:09.627Z,13.40
2017-11-14T09:17:37.879Z,11.30
2017-11-14T09:20:06.123Z,11.33
2017-11-14T09:22:34.382Z,10.90
2017-11-14T09:25:02.651Z,10.60
2017-11-14T09:27:31.639Z,12.00
2017-11-14T09:29:59.888Z,13.70
2017-11-14T09:32:28.903Z,12.10
2017-11-14T09:34:57.136Z,10.10
2017-11-14T09:37:25.387Z,12.27
2017-11-14T09:39:54.203Z,12.37
2017-11-14T09:42:22.452Z,10.30
2017-11-14T09:44:50.711Z,10.30
2017-11-14T09:47:18.949Z,9.87
2017-11-14T09:49:47.955Z,13.53
2017-11-14T09:52:16.208Z,10.80
2017-11-14T09:54:45.214Z,12.30
2017-11-14T09:57:14.227Z,10.67
2017-11-14T09:59:42.475Z,11.03
2017-11-14T10:02:11.491Z,12.33
2017-11-14T10:04:39.730Z,10.40
2017-11-14T10:07:08.751Z,10.70
2017-11-14T10:09:36.984Z,10.43
2017-11-14T10:12:05.236Z,10.37
2017-11-14T10:14:33.479Z,10.70
2017-11-14T10:17:01.731Z,10.90
2017-11-14T10:19:30.739Z,11.63
2017-11-14T10:21:58.989Z,10.60
2017-11-14T10:24:27.243Z,12.53
2017-11-14T10:26:55.488Z,11.03
2017-11-14T10:29:23.735Z,12.00
2017-11-14T10:31:52.743Z,12.60
2017-11-14T10:34:20.989Z,9.77
2017-11-14T10:36:50.004Z,11.80
2017-11-14T10:39:18.248Z,10.37
2017-11-14T10:41:46.497Z,12.80
2017-11-14T10:44:15.499Z,15.20
2017-11-14T10:46:43.747Z,13.30
2017-11-14T10:49:11.996Z,13.63
2017-11-14T10:51:41.012Z,13.67
2017-11-14T10:54:09.255Z,10.30
2017-11-14T10:56:38.268Z,16.47
2017-11-14T10:59:06.527Z,12.87
2017-11-14T11:01:35.550Z,10.47
2017-11-14T11:04:03.790Z,10.20
2017-11-14T11:06:32.816Z,11.83
2017-11-14T11:09:01.074Z,12.20
2017-11-14T11:11:29.319Z,10.30
2017-11-14T11:13:57.565Z,10.80
2017-11-14T11:16:40.693Z,11.10
2017-11-14T11:19:08.943Z,10.53
2017-11-14T11:21:37.175Z,11.17
2017-11-14T11:24:06.190Z,10.00
2017-11-14T11:26:34.459Z,9.43
2017-11-14T11:29:03.463Z,9.77
2017-11-14T11:31:31.009Z,9.67
2017-11-14T11:33:59.251Z,10.93
2017-11-14T11:36:27.502Z,8.90
2017-11-14T11:38:55.747Z,10.17
2017-11-14T11:41:23.991Z,9.70
2017-11-14T11:43:53.004Z,9.00
2017-11-14T11:46:22.018Z,9.67
2017-11-14T11:48:51.087Z,9.03
2017-11-14T11:51:20.108Z,10.83
2017-11-14T11:53:48.355Z,12.00
2017-11-14T11:56:17.385Z,12.10
2017-11-14T11:58:45.622Z,11.77
2017-11-14T12:01:14.634Z,10.00
2017-11-14T12:03:42.880Z,11.13
2017-11-14T12:06:11.886Z,10.37
2017-11-14T12:08:40.145Z,12.40
2017-11-14T12:11:08.384Z,12.27
2017-11-14T12:13:36.632Z,9.40
2017-11-14T12:16:04.884Z,10.20
2017-11-14T12:18:33.914Z,11.70
2017-11-14T12:21:02.148Z,10.63
2017-11-14T12:23:31.151Z,9.87
2017-11-14T12:25:59.412Z,11.43
2017-11-14T12:28:27.643Z,10.57
2017-11-14T12:30:55.886Z,10.80
2017-11-14T12:33:24.123Z,8.87
2017-11-14T12:35:52.370Z,9.00
2017-11-14T12:38:20.607Z,9.10
2017-11-14T12:40:48.855Z,9.40
2017-11-14T12:43:17.094Z,10.00
2017-11-14T12:45:45.330Z,9.63
2017-11-14T12:48:13.580Z,9.77
2017-11-14T12:50:41.816Z,9.40
2017-11-14T12:53:10.061Z,8.30
2017-11-14T12:55:38.310Z,10.00
2017-11-14T12:58:06.555Z,12.00
2017-11-14T13:00:34.803Z,14.60
2017-11-14T13:03:03.052Z,13.10
2017-11-14T13:05:32.055Z,11.53
2017-11-14T13:08:00.309Z,12.27
2017-11-14T13:10:29.314Z,14.00
2017-11-14T13:12:58.346Z,11.03
2017-11-14T13:15:26.592Z,13.63
2017-11-14T13:17:54.836Z,15.37
2017-11-14T13:20:23.079Z,11.87
2017-11-14T13:22:51.334Z,10.73
2017-11-14T13:25:19.581Z,9.50
2017-11-14T13:27:48.588Z,10.27
2017-11-14T13:30:16.836Z,11.70
2017-11-14T13:32:45.851Z,10.77
2017-11-14T13:35:14.115Z,11.53
2017-11-14T13:37:43.140Z,10.20
2017-11-14T13:40:11.373Z,10.20
2017-11-14T13:42:40.391Z,10.57
2017-11-14T13:45:08.647Z,11.77
2017-11-14T13:47:37.650Z,11.30
2017-11-14T13:50:05.899Z,10.10
2017-11-14T13:52:34.155Z,11.20
2017-11-14T13:55:02.395Z,11.10
2017-11-14T13:57:30.655Z,10.43
2017-11-14T13:59:58.900Z,9.50
2017-11-14T14:02:27.138Z,9.37
2017-11-14T14:04:55.388Z,11.83
2017-11-14T14:07:23.635Z,12.63
2017-11-14T14:09:52.643Z,11.37
2017-11-14T14:12:21.661Z,9.50
2017-11-14T14:14:49.905Z,9.07
2017-11-14T14:17:18.919Z,12.93
2017-11-14T14:19:47.165Z,12.73
2017-11-14T14:22:15.414Z,11.77
2017-11-14T14:24:43.663Z,11.57
2017-11-14T14:27:11.891Z,12.90
2017-11-14T14:29:40.898Z,14.27
2017-11-14T14:32:09.916Z,16.37
2017-11-14T14:34:38.165Z,13.30
2017-11-14T14:37:07.179Z,10.87
2017-11-14T14:39:35.411Z,10.77
2017-11-14T14:42:03.647Z,9.50
2017-11-14T14:44:31.891Z,12.07
2017-11-14T14:47:00.133Z,9.73
2017-11-14T14:49:28.378Z,10.90
2017-11-14T14:51:56.623Z,11.80
2017-11-14T14:54:24.861Z,10.50
2017-11-14T14:56:53.116Z,11.10
2017-11-14T14:59:21.366Z,10.70
2017-11-14T15:01:49.604Z,10.20
2017-11-14T15:04:18.615Z,11.50
2017-11-14T15:06:46.871Z,13.23
2017-11-14T15:09:15.882Z,9.60
2017-11-14T15:11:44.124Z,10.57
2017-11-14T15:14:12.367Z,10.32
2017-11-14T15:16:40.623Z,8.10
2017-11-14T15:19:08.860Z,10.93
2017-11-14T15:21:37.878Z,5.93
2017-11-14T15:24:06.118Z,8.00
2017-11-14T15:26:34.366Z,10.97
2017-11-14T15:29:02.607Z,11.87
2017-11-14T15:31:30.858Z,12.57
2017-11-14T15:33:59.879Z,10.53
2017-11-14T15:36:28.123Z,9.70
2017-11-14T15:38:57.141Z,12.90
2017-11-14T15:41:25.390Z,10.98
2017-11-14T15:43:54.407Z,11.43
2017-11-14T15:46:22.661Z,9.18
2017-11-14T15:48:51.672Z,10.43
2017-11-14T15:51:20.675Z,8.87
2017-11-14T15:53:48.925Z,10.70
2017-11-14T15:56:17.939Z,12.63
2017-11-14T15:58:46.179Z,9.53
2017-11-14T16:01:14.419Z,10.40
2017-11-14T16:03:42.680Z,14.75
2017-11-14T16:06:10.931Z,12.80
2017-11-14T16:08:39.187Z,9.63
2017-11-14T16:11:07.433Z,11.40
2017-11-14T16:13:35.693Z,13.00
2017-11-14T16:16:03.928Z,14.73
2017-11-14T16:18:32.945Z,13.30
2017-11-14T16:21:01.198Z,14.18
2017-11-14T16:23:30.202Z,14.50
2017-11-14T16:25:58.455Z,11.00
2017-11-14T16:28:27.488Z,9.57
2017-11-14T16:30:55.742Z,9.32
2017-11-14T16:33:24.745Z,12.87
2017-11-14T16:35:53.002Z,13.40
2017-11-14T16:38:22.114Z,11.20
2017-11-14T16:40:50.363Z,7.27
2017-11-14T16:43:19.366Z,12.20
2017-11-14T16:45:47.632Z,13.75
2017-11-14T16:48:16.651Z,13.38
2017-11-14T16:50:44.902Z,17.12
2017-11-14T16:53:13.935Z,14.32
2017-11-14T16:55:42.177Z,13.30
2017-11-14T16:58:11.195Z,15.63
2017-11-14T17:00:39.446Z,16.62
2017-11-14T17:03:08.492Z,15.48
2017-11-14T17:05:36.747Z,16.70
2017-11-14T17:08:04.993Z,17.63
2017-11-14T17:10:34.031Z,17.35
2017-11-14T17:13:02.267Z,17.00
2017-11-14T17:15:30.522Z,17.40
2017-11-14T17:17:59.544Z,18.43
2017-11-14T17:20:27.800Z,18.50
2017-11-14T17:22:56.812Z,15.20
2017-11-14T17:25:25.063Z,14.93
2017-11-14T17:27:54.083Z,15.05
2017-11-14T17:30:22.336Z,16.83
2017-11-14T17:32:51.364Z,16.45
2017-11-14T17:35:19.629Z,14.02
2017-11-14T17:37:47.895Z,20.13
2017-11-14T17:40:19.683Z,19.48
2017-11-14T17:42:47.976Z,19.45
2017-11-14T17:45:16.231Z,12.30
2017-11-14T17:47:44.535Z,21.60
2017-11-14T17:50:12.899Z,17.45
2017-11-14T17:52:41.950Z,17.25
2017-11-14T17:55:11.257Z,18.65
2017-11-14T17:57:39.588Z,19.67
2017-11-14T18:00:07.913Z,18.98
2017-11-14T18:02:36.225Z,19.10
2017-11-14T18:05:05.665Z,18.47
2017-11-14T18:07:34.739Z,19.67
2017-11-14T18:10:02.994Z,20.35
2017-11-14T18:12:31.252Z,17.30
2017-11-14T18:14:59.742Z,16.85
2017-11-14T18:17:28.027Z,16.10
2017-11-14T18:19:56.331Z,20.15
2017-11-14T18:22:24.618Z,13.55
2017-11-14T18:24:53.660Z,17.37
2017-11-14T18:27:21.936Z,15.32
2017-11-14T18:29:50.225Z,15.68
2017-11-14T18:32:18.743Z,18.30
2017-11-14T18:35:00.608Z,20.37
2017-11-14T18:37:28.952Z,16.20
2017-11-14T18:39:57.283Z,18.85
2017-11-14T18:42:25.593Z,20.05
2017-11-14T18:44:53.904Z,17.92
2017-11-14T18:47:22.976Z,22.08
2017-11-14T18:49:51.269Z,19.50
2017-11-14T18:52:19.642Z,15.97
2017-11-14T18:54:47.980Z,23.67
2017-11-14T18:57:17.090Z,17.15
2017-11-14T18:59:45.400Z,24.90
2017-11-14T19:02:13.684Z,21.73
2017-11-14T19:04:41.974Z,21.80
2017-11-14T19:07:10.300Z,18.48
2017-11-14T19:09:38.594Z,19.50
2017-11-14T19:12:06.885Z,17.55
2017-11-14T19:14:35.145Z,19.47
2017-11-14T19:17:03.386Z,18.40
2017-11-14T19:19:32.402Z,14.40
2017-11-14T19:22:00.649Z,19.37
2017-11-14T19:24:29.686Z,18.40
2017-11-14T19:26:57.934Z,18.07
2017-11-14T19:29:26.972Z,19.77
2017-11-14T19:31:55.230Z,17.85
2017-11-14T19:34:23.475Z,17.35
2017-11-14T19:36:51.754Z,18.40
2017-11-14T19:39:20.772Z,16.63
2017-11-14T19:41:49.023Z,16.53
2017-11-14T19:44:18.028Z,17.87
2017-11-14T19:46:46.324Z,13.90
2017-11-14T19:49:14.564Z,16.03
2017-11-14T19:51:43.566Z,14.97
2017-11-14T19:54:11.827Z,12.35
2017-11-14T19:56:40.839Z,15.83
2017-11-14T19:59:09.092Z,17.00
2017-11-14T20:01:38.184Z,15.30
2017-11-14T20:04:07.216Z,19.30
2017-11-14T20:06:35.486Z,17.70
2017-11-14T20:09:03.745Z,19.07
2017-11-14T20:11:32.766Z,17.70
2017-11-14T20:14:01.040Z,16.85
2017-11-14T20:16:29.307Z,18.92
2017-11-14T20:18:57.568Z,18.87
2017-11-14T20:21:25.976Z,16.30
2017-11-14T20:23:54.255Z,20.17
2017-11-14T20:26:22.524Z,20.00
2017-11-14T20:28:50.775Z,22.03
2017-11-14T20:31:19.025Z,21.70
2017-11-14T20:33:47.267Z,19.20
2017-11-14T20:36:15.529Z,22.85
2017-11-14T20:38:43.789Z,22.60
2017-11-14T20:41:12.075Z,19.83
2017-11-14T20:43:40.334Z,21.23
2017-11-14T20:46:08.607Z,20.05
2017-11-14T20:48:37.620Z,21.57
2017-11-14T20:51:05.868Z,21.70
2017-11-14T20:53:34.886Z,21.05
2017-11-14T20:56:03.130Z,20.50
2017-11-14T20:58:32.151Z,18.83
2017-11-14T21:01:00.422Z,15.87
2017-11-14T21:03:28.683Z,14.23
2017-11-14T21:05:57.695Z,18.60
2017-11-14T21:08:25.958Z,18.15
2017-11-14T21:10:54.209Z,20.77
2017-11-14T21:13:22.459Z,19.00
2017-11-14T21:15:50.787Z,21.20
2017-11-14T21:18:19.058Z,21.62
2017-11-14T21:20:48.069Z,17.65
2017-11-14T21:23:16.338Z,18.97
2017-11-14T21:25:44.597Z,17.87
2017-11-14T21:28:12.842Z,17.53
2017-11-14T21:30:41.175Z,18.80
2017-11-14T21:33:09.472Z,16.33
2017-11-14T21:35:37.790Z,17.98
2017-11-14T21:38:06.032Z,17.03
2017-11-14T21:40:34.282Z,18.58
2017-11-14T21:43:02.545Z,17.47
2017-11-14T21:45:31.599Z,18.73
2017-11-14T21:47:59.847Z,18.60
2017-11-14T21:50:28.106Z,18.23
2017-11-14T21:52:56.519Z,19.27
2017-11-14T21:55:24.805Z,20.70
2017-11-14T21:57:53.035Z,20.93
2017-11-14T22:00:21.296Z,15.40
2017-11-14T22:02:50.296Z,19.13
2017-11-14T22:05:18.573Z,18.85
2017-11-14T22:07:47.592Z,16.75
2017-11-14T22:10:15.837Z,17.63
2017-11-14T22:12:44.852Z,17.10
2017-11-14T22:15:14.023Z,17.33
2017-11-14T22:17:43.048Z,18.80
2017-11-14T22:20:11.346Z,18.47
2017-11-14T22:22:39.604Z,18.57
2017-11-14T22:25:07.843Z,20.27
2017-11-14T22:27:36.875Z,17.63
2017-11-14T22:30:05.292Z,18.90
2017-11-14T22:32:33.546Z,17.13
2017-11-14T22:35:01.820Z,17.62
2017-11-14T22:37:30.067Z,16.67
2017-11-14T22:39:58.312Z,18.77
2017-11-14T22:42:27.364Z,18.65
2017-11-14T22:44:55.673Z,22.30
2017-11-14T22:47:23.975Z,22.67
2017-11-14T22:49:53.007Z,21.90
2017-11-14T22:52:21.288Z,23.27
2017-11-14T22:54:49.571Z,24.07
2017-11-14T22:57:17.807Z,27.40
2017-11-14T22:59:46.057Z,28.70
2017-11-14T23:02:15.078Z,26.87
2017-11-14T23:04:43.339Z,24.85
2017-11-14T23:07:11.597Z,27.20
2017-11-14T23:09:40.621Z,27.48
2017-11-14T23:12:08.864Z,30.80
2017-11-14T23:14:37.903Z,32.90
2017-11-14T23:17:06.147Z,31.48
2017-11-14T23:19:34.399Z,33.83
2017-11-14T23:22:02.652Z,34.78
2017-11-14T23:24:30.897Z,32.53
2017-11-14T23:26:59.162Z,35.75
2017-11-14T23:29:27.415Z,34.83
2017-11-14T23:31:56.422Z,28.12
2017-11-14T23:34:24.685Z,28.38
2017-11-14T23:36:53.694Z,32.80
2017-11-14T23:39:21.951Z,32.60
2017-11-14T23:41:50.971Z,31.73
2017-11-14T23:44:19.222Z,32.15
2017-11-14T23:46:48.239Z,28.73
2017-11-14T23:49:16.490Z,29.98
2017-11-14T23:51:45.508Z,27.73
2017-11-14T23:54:13.764Z,27.13
2017-11-14T23:56:42.788Z,25.48
2017-11-14T23:59:11.048Z,24.70
